sensor_id;sensor_type;location;lat;lon;timestamp;P1;durP1;ratioP1;P2;durP2;ratioP2
6862;SDS011;3470;48.738;9.616;2023-05-07T00:02:01;3.77;;;3.00;;
6862;SDS011;3470;48.738;9.616;2023-05-07T00:04:28;3.03;;;2.83;;
6862;SDS011;3470;48.738;9.616;2023-05-07T00:07:00;3.50;;;2.97;;
6862;SDS011;3470;48.738;9.616;2023-05-07T00:09:26;5.00;;;3.20;;
6862;SDS011;3470;48.738;9.616;2023-05-07T00:11:52;5.43;;;3.43;;
6862;SDS011;3470;48.738;9.616;2023-05-07T00:14:17;3.80;;;3.03;;
6862;SDS011;3470;48.738;9.616;2023-05-07T00:16:43;4.03;;;2.93;;
6862;SDS011;3470;48.738;9.616;2023-05-07T00:19:09;3.40;;;3.10;;
6862;SDS011;3470;48.738;9.616;2023-05-07T00:21:34;4.40;;;3.43;;
6862;SDS011;3470;48.738;9.616;2023-05-07T00:24:00;3.23;;;2.70;;
6862;SDS011;3470;48.738;9.616;2023-05-07T00:26:25;4.17;;;3.30;;
6862;SDS011;3470;48.738;9.616;2023-05-07T00:28:51;3.53;;;3.20;;
6862;SDS011;3470;48.738;9.616;2023-05-07T00:31:17;4.87;;;3.20;;
6862;SDS011;3470;48.738;9.616;2023-05-07T00:33:42;3.77;;;2.90;;
6862;SDS011;3470;48.738;9.616;2023-05-07T00:36:08;4.93;;;3.43;;
6862;SDS011;3470;48.738;9.616;2023-05-07T00:38:33;3.07;;;2.77;;
6862;SDS011;3470;48.738;9.616;2023-05-07T00:41:01;3.57;;;3.13;;
6862;SDS011;3470;48.738;9.616;2023-05-07T00:43:27;3.90;;;3.00;;
6862;SDS011;3470;48.738;9.616;2023-05-07T00:45:53;3.40;;;3.10;;
6862;SDS011;3470;48.738;9.616;2023-05-07T00:48:19;4.30;;;3.37;;
6862;SDS011;3470;48.738;9.616;2023-05-07T00:50:45;3.30;;;3.00;;
6862;SDS011;3470;48.738;9.616;2023-05-07T00:53:12;3.83;;;3.17;;
6862;SDS011;3470;48.738;9.616;2023-05-07T00:55:38;4.33;;;3.07;;
6862;SDS011;3470;48.738;9.616;2023-05-07T00:58:04;4.47;;;3.00;;
6862;SDS011;3470;48.738;9.616;2023-05-07T01:00:30;3.83;;;2.73;;
6862;SDS011;3470;48.738;9.616;2023-05-07T01:02:56;3.80;;;3.50;;
6862;SDS011;3470;48.738;9.616;2023-05-07T01:05:22;4.67;;;3.40;;
6862;SDS011;3470;48.738;9.616;2023-05-07T01:07:50;3.10;;;2.80;;
6862;SDS011;3470;48.738;9.616;2023-05-07T15:01:10;3.28;;;1.70;;
6862;SDS011;3470;48.738;9.616;2023-05-07T15:03:36;1.60;;;1.50;;
6862;SDS011;3470;48.738;9.616;2023-05-07T15:06:02;2.22;;;1.70;;
6862;SDS011;3470;48.738;9.616;2023-05-07T15:08:27;3.05;;;1.70;;
6862;SDS011;3470;48.738;9.616;2023-05-07T15:10:53;2.95;;;1.88;;
6862;SDS011;3470;48.738;9.616;2023-05-07T15:13:20;2.28;;;2.00;;
6862;SDS011;3470;48.738;9.616;2023-05-07T15:15:46;3.17;;;2.00;;
6862;SDS011;3470;48.738;9.616;2023-05-07T15:18:12;3.40;;;1.80;;
6862;SDS011;3470;48.738;9.616;2023-05-07T15:20:38;2.47;;;1.80;;
6862;SDS011;3470;48.738;9.616;2023-05-07T15:23:03;3.72;;;1.80;;
6862;SDS011;3470;48.738;9.616;2023-05-07T15:25:30;1.98;;;1.88;;
6862;SDS011;3470;48.738;9.616;2023-05-07T15:27:58;4.55;;;2.13;;
6862;SDS011;3470;48.738;9.616;2023-05-07T15:30:24;3.00;;;2.00;;
6862;SDS011;3470;48.738;9.616;2023-05-07T15:32:50;2.50;;;1.92;;
6862;SDS011;3470;48.738;9.616;2023-05-07T15:35:15;2.92;;;2.25;;
6862;SDS011;3470;48.738;9.616;2023-05-07T15:37:42;2.60;;;2.40;;
6862;SDS011;3470;48.738;9.616;2023-05-07T15:40:08;2.60;;;2.40;;
6862;SDS011;3470;48.738;9.616;2023-05-07T15:42:34;2.20;;;2.00;;
6862;SDS011;3470;48.738;9.616;2023-05-07T15:44:59;3.45;;;2.50;;
6862;SDS011;3470;48.738;9.616;2023-05-07T15:47:28;4.93;;;3.40;;
6862;SDS011;3470;48.738;9.616;2023-05-07T15:49:58;10.38;;;3.80;;
6862;SDS011;3470;48.738;9.616;2023-05-07T15:52:24;5.55;;;3.60;;
6862;SDS011;3470;48.738;9.616;2023-05-07T15:54:49;5.68;;;4.25;;
6862;SDS011;3470;48.738;9.616;2023-05-07T15:57:15;4.22;;;3.67;;
6862;SDS011;3470;48.738;9.616;2023-05-07T15:59:40;5.70;;;4.10;;
6862;SDS011;3470;48.738;9.616;2023-05-07T16:02:06;5.20;;;3.80;;
6862;SDS011;3470;48.738;9.616;2023-05-07T16:04:32;3.70;;;3.40;;
6862;SDS011;3470;48.738;9.616;2023-05-07T16:06:57;4.75;;;3.53;;
6862;SDS011;3470;48.738;9.616;2023-05-07T16:09:23;3.83;;;3.53;;
6862;SDS011;3470;48.738;9.616;2023-05-07T16:11:49;4.13;;;3.53;;
6862;SDS011;3470;48.738;9.616;2023-05-07T16:14:15;5.40;;;4.22;;
6862;SDS011;3470;48.738;9.616;2023-05-07T16:16:40;4.95;;;3.78;;
6862;SDS011;3470;48.738;9.616;2023-05-07T16:19:06;4.28;;;3.72;;
6862;SDS011;3470;48.738;9.616;2023-05-07T16:21:32;5.18;;;3.78;;
6862;SDS011;3470;48.738;9.616;2023-05-07T16:23:57;5.28;;;3.85;;
6862;SDS011;3470;48.738;9.616;2023-05-07T16:26:23;3.97;;;3.63;;
6862;SDS011;3470;48.738;9.616;2023-05-07T16:28:49;4.18;;;3.78;;
6862;SDS011;3470;48.738;9.616;2023-05-07T16:31:15;6.13;;;3.90;;
6862;SDS011;3470;48.738;9.616;2023-05-07T16:33:41;4.65;;;3.53;;
6862;SDS011;3470;48.738;9.616;2023-05-07T16:36:07;6.32;;;3.85;;
6862;SDS011;3470;48.738;9.616;2023-05-07T16:38:33;5.18;;;3.75;;
6862;SDS011;3470;48.738;9.616;2023-05-07T16:40:58;5.10;;;4.03;;
6862;SDS011;3470;48.738;9.616;2023-05-07T16:43:25;4.15;;;3.72;;
6862;SDS011;3470;48.738;9.616;2023-05-07T16:45:51;5.55;;;3.85;;
6862;SDS011;3470;48.738;9.616;2023-05-07T16:48:17;4.30;;;3.80;;
6862;SDS011;3470;48.738;9.616;2023-05-07T16:50:42;4.65;;;3.45;;
6862;SDS011;3470;48.738;9.616;2023-05-07T16:53:11;4.35;;;3.55;;
6862;SDS011;3470;48.738;9.616;2023-05-07T16:55:36;3.92;;;3.40;;
6862;SDS011;3470;48.738;9.616;2023-05-07T16:58:03;4.25;;;3.15;;
6862;SDS011;3470;48.738;9.616;2023-05-07T17:00:33;3.15;;;2.85;;
6862;SDS011;3470;48.738;9.616;2023-05-07T17:02:58;3.78;;;3.28;;
6862;SDS011;3470;48.738;9.616;2023-05-07T17:05:24;3.30;;;2.92;;
6862;SDS011;3470;48.738;9.616;2023-05-07T17:07:50;4.22;;;3.13;;
6862;SDS011;3470;48.738;9.616;2023-05-07T17:10:16;2.88;;;2.50;;
6862;SDS011;3470;48.738;9.616;2023-05-07T17:12:41;3.72;;;3.28;;
6862;SDS011;3470;48.738;9.616;2023-05-07T17:15:07;3.13;;;2.60;;
6862;SDS011;3470;48.738;9.616;2023-05-07T17:17:34;3.08;;;2.47;;
6862;SDS011;3470;48.738;9.616;2023-05-07T17:19:59;3.33;;;2.60;;
6862;SDS011;3470;48.738;9.616;2023-05-07T17:22:25;6.80;;;3.00;;
6862;SDS011;3470;48.738;9.616;2023-05-07T17:24:51;3.50;;;2.70;;
6862;SDS011;3470;48.738;9.616;2023-05-07T17:27:17;2.58;;;2.35;;
6862;SDS011;3470;48.738;9.616;2023-05-07T17:29:42;4.22;;;2.97;;
6862;SDS011;3470;48.738;9.616;2023-05-07T17:32:08;4.60;;;2.90;;
6862;SDS011;3470;48.738;9.616;2023-05-07T17:34:33;3.33;;;3.03;;
6862;SDS011;3470;48.738;9.616;2023-05-07T17:36:59;4.00;;;3.03;;
6862;SDS011;3470;48.738;9.616;2023-05-07T17:39:25;5.03;;;3.25;;
6862;SDS011;3470;48.738;9.616;2023-05-07T17:41:50;5.10;;;3.40;;
6862;SDS011;3470;48.738;9.616;2023-05-07T17:44:16;4.53;;;3.50;;
6862;SDS011;3470;48.738;9.616;2023-05-07T17:46:42;4.15;;;3.60;;
6862;SDS011;3470;48.738;9.616;2023-05-07T17:49:07;3.77;;;3.40;;
6862;SDS011;3470;48.738;9.616;2023-05-07T17:51:33;4.47;;;3.70;;
6862;SDS011;3470;48.738;9.616;2023-05-07T17:53:59;3.80;;;3.50;;
6862;SDS011;3470;48.738;9.616;2023-05-07T17:56:24;4.57;;;3.30;;
6862;SDS011;3470;48.738;9.616;2023-05-07T17:58:50;3.73;;;3.43;;
6862;SDS011;3470;48.738;9.616;2023-05-07T18:01:18;4.82;;;4.13;;
6862;SDS011;3470;48.738;9.616;2023-05-07T18:03:43;4.43;;;4.03;;
6862;SDS011;3470;48.738;9.616;2023-05-07T18:06:09;4.40;;;4.00;;
6862;SDS011;3470;48.738;9.616;2023-05-07T18:08:35;5.87;;;3.80;;
6862;SDS011;3470;48.738;9.616;2023-05-07T18:11:00;4.10;;;3.80;;
6862;SDS011;3470;48.738;9.616;2023-05-07T18:13:26;3.77;;;3.33;;
6862;SDS011;3470;48.738;9.616;2023-05-07T18:15:51;6.07;;;4.60;;
6862;SDS011;3470;48.738;9.616;2023-05-07T18:18:17;5.37;;;4.07;;
6862;SDS011;3470;48.738;9.616;2023-05-07T18:20:47;4.17;;;3.73;;
6862;SDS011;3470;48.738;9.616;2023-05-07T18:23:14;4.55;;;4.15;;
6862;SDS011;3470;48.738;9.616;2023-05-07T18:25:40;4.70;;;4.30;;
6862;SDS011;3470;48.738;9.616;2023-05-07T18:28:06;4.73;;;4.23;;
6862;SDS011;3470;48.738;9.616;2023-05-07T18:30:31;5.23;;;4.03;;
6862;SDS011;3470;48.738;9.616;2023-05-07T18:32:57;4.53;;;4.07;;
6862;SDS011;3470;48.738;9.616;2023-05-07T18:35:22;5.95;;;5.45;;
6862;SDS011;3470;48.738;9.616;2023-05-07T18:37:48;8.10;;;7.38;;
6862;SDS011;3470;48.738;9.616;2023-05-07T18:40:13;6.55;;;5.40;;
6862;SDS011;3470;48.738;9.616;2023-05-07T18:42:39;5.10;;;4.60;;
6862;SDS011;3470;48.738;9.616;2023-05-07T18:45:05;5.20;;;4.70;;
6862;SDS011;3470;48.738;9.616;2023-05-07T18:47:31;5.33;;;4.63;;
6862;SDS011;3470;48.738;9.616;2023-05-07T18:49:56;6.07;;;4.63;;
6862;SDS011;3470;48.738;9.616;2023-05-07T18:52:22;4.90;;;4.13;;
6862;SDS011;3470;48.738;9.616;2023-05-07T18:54:50;6.97;;;5.20;;
6862;SDS011;3470;48.738;9.616;2023-05-07T18:57:15;5.33;;;4.63;;
6862;SDS011;3470;48.738;9.616;2023-05-07T18:59:41;4.50;;;4.10;;
6862;SDS011;3470;48.738;9.616;2023-05-07T19:02:06;5.23;;;4.33;;
6862;SDS011;3470;48.738;9.616;2023-05-07T19:04:32;4.83;;;4.30;;
6862;SDS011;3470;48.738;9.616;2023-05-07T19:06:58;5.43;;;4.37;;
6862;SDS011;3470;48.738;9.616;2023-05-07T19:09:23;5.27;;;4.77;;
6862;SDS011;3470;48.738;9.616;2023-05-07T19:11:49;6.10;;;5.17;;
6862;SDS011;3470;48.738;9.616;2023-05-07T19:14:14;5.77;;;5.17;;
6862;SDS011;3470;48.738;9.616;2023-05-07T19:16:40;7.00;;;5.43;;
6862;SDS011;3470;48.738;9.616;2023-05-07T19:19:06;6.63;;;6.00;;
6862;SDS011;3470;48.738;9.616;2023-05-07T19:21:31;6.23;;;5.63;;
6862;SDS011;3470;48.738;9.616;2023-05-07T19:23:57;6.57;;;5.77;;
6862;SDS011;3470;48.738;9.616;2023-05-07T19:26:22;7.67;;;5.70;;
6862;SDS011;3470;48.738;9.616;2023-05-07T19:28:48;6.53;;;5.50;;
6862;SDS011;3470;48.738;9.616;2023-05-07T19:31:22;6.23;;;5.63;;
6862;SDS011;3470;48.738;9.616;2023-05-07T19:33:50;7.47;;;6.13;;
6862;SDS011;3470;48.738;9.616;2023-05-07T19:36:16;6.80;;;6.10;;
6862;SDS011;3470;48.738;9.616;2023-05-07T19:38:42;6.47;;;5.70;;
6862;SDS011;3470;48.738;9.616;2023-05-07T19:41:08;6.77;;;5.73;;
6862;SDS011;3470;48.738;9.616;2023-05-07T19:43:36;6.53;;;5.43;;
6862;SDS011;3470;48.738;9.616;2023-05-07T19:46:02;11.50;;;10.47;;
6862;SDS011;3470;48.738;9.616;2023-05-07T19:48:28;12.17;;;11.07;;
6862;SDS011;3470;48.738;9.616;2023-05-07T19:50:55;10.03;;;9.13;;
6862;SDS011;3470;48.738;9.616;2023-05-07T19:53:20;8.17;;;7.37;;
6862;SDS011;3470;48.738;9.616;2023-05-07T19:55:46;7.40;;;6.70;;
6862;SDS011;3470;48.738;9.616;2023-05-07T19:58:12;6.70;;;5.80;;
6862;SDS011;3470;48.738;9.616;2023-05-07T20:00:40;6.10;;;4.83;;
6862;SDS011;3470;48.738;9.616;2023-05-07T20:03:06;6.60;;;5.97;;
6862;SDS011;3470;48.738;9.616;2023-05-07T20:05:32;7.30;;;6.60;;
6862;SDS011;3470;48.738;9.616;2023-05-07T20:07:57;7.80;;;7.07;;
6862;SDS011;3470;48.738;9.616;2023-05-07T20:10:24;6.87;;;6.17;;
6862;SDS011;3470;48.738;9.616;2023-05-07T20:12:49;7.53;;;6.73;;
6862;SDS011;3470;48.738;9.616;2023-05-07T20:15:15;7.17;;;6.47;;
6862;SDS011;3470;48.738;9.616;2023-05-07T20:17:41;7.00;;;6.30;;
6862;SDS011;3470;48.738;9.616;2023-05-07T20:20:06;5.90;;;5.40;;
6862;SDS011;3470;48.738;9.616;2023-05-07T20:22:35;5.47;;;4.70;;
6862;SDS011;3470;48.738;9.616;2023-05-07T20:25:02;7.90;;;5.37;;
6862;SDS011;3470;48.738;9.616;2023-05-07T20:27:28;6.27;;;4.73;;
6862;SDS011;3470;48.738;9.616;2023-05-07T20:29:53;5.20;;;4.70;;
6862;SDS011;3470;48.738;9.616;2023-05-07T20:32:19;5.60;;;5.10;;
6862;SDS011;3470;48.738;9.616;2023-05-07T20:34:44;5.63;;;4.40;;
6862;SDS011;3470;48.738;9.616;2023-05-07T20:37:11;7.37;;;5.00;;
6862;SDS011;3470;48.738;9.616;2023-05-07T20:39:39;4.93;;;4.53;;
6862;SDS011;3470;48.738;9.616;2023-05-07T20:42:05;5.53;;;4.87;;
6862;SDS011;3470;48.738;9.616;2023-05-07T20:44:32;5.70;;;4.77;;
6862;SDS011;3470;48.738;9.616;2023-05-07T20:46:58;5.40;;;4.70;;
6862;SDS011;3470;48.738;9.616;2023-05-07T20:49:23;6.30;;;5.70;;
6862;SDS011;3470;48.738;9.616;2023-05-07T20:51:49;5.47;;;4.97;;
6862;SDS011;3470;48.738;9.616;2023-05-07T20:54:15;5.63;;;5.10;;
6862;SDS011;3470;48.738;9.616;2023-05-07T20:56:41;6.53;;;5.40;;
6862;SDS011;3470;48.738;9.616;2023-05-07T20:59:07;7.13;;;6.27;;
6862;SDS011;3470;48.738;9.616;2023-05-07T21:01:32;6.70;;;6.00;;
6862;SDS011;3470;48.738;9.616;2023-05-07T21:03:58;6.87;;;5.90;;
6862;SDS011;3470;48.738;9.616;2023-05-07T21:06:24;6.53;;;5.93;;
6862;SDS011;3470;48.738;9.616;2023-05-07T21:08:49;7.13;;;6.43;;
6862;SDS011;3470;48.738;9.616;2023-05-07T21:11:15;6.63;;;6.03;;
6862;SDS011;3470;48.738;9.616;2023-05-07T21:13:41;6.57;;;5.97;;
6862;SDS011;3470;48.738;9.616;2023-05-07T21:16:07;6.60;;;6.00;;
6862;SDS011;3470;48.738;9.616;2023-05-07T21:18:34;8.40;;;6.10;;
6862;SDS011;3470;48.738;9.616;2023-05-07T21:21:00;7.33;;;6.63;;
6862;SDS011;3470;48.738;9.616;2023-05-07T21:23:26;6.50;;;5.90;;
6862;SDS011;3470;48.738;9.616;2023-05-07T21:25:52;6.97;;;6.23;;
6862;SDS011;3470;48.738;9.616;2023-05-07T21:28:17;7.33;;;6.60;;
6862;SDS011;3470;48.738;9.616;2023-05-07T21:30:43;7.47;;;6.13;;
6862;SDS011;3470;48.738;9.616;2023-05-07T21:33:08;7.40;;;6.70;;
6862;SDS011;3470;48.738;9.616;2023-05-07T21:35:34;7.13;;;6.43;;
6862;SDS011;3470;48.738;9.616;2023-05-07T21:38:00;7.90;;;7.10;;
6862;SDS011;3470;48.738;9.616;2023-05-07T21:40:26;6.80;;;6.20;;
6862;SDS011;3470;48.738;9.616;2023-05-07T21:42:52;6.77;;;6.03;;
6862;SDS011;3470;48.738;9.616;2023-05-07T21:45:18;6.73;;;6.13;;
6862;SDS011;3470;48.738;9.616;2023-05-07T21:47:44;6.77;;;6.13;;
6862;SDS011;3470;48.738;9.616;2023-05-07T21:50:10;7.27;;;6.37;;
6862;SDS011;3470;48.738;9.616;2023-05-07T21:52:36;7.53;;;6.83;;
6862;SDS011;3470;48.738;9.616;2023-05-07T21:55:02;7.43;;;6.70;;
6862;SDS011;3470;48.738;9.616;2023-05-07T21:57:28;7.47;;;6.60;;
6862;SDS011;3470;48.738;9.616;2023-05-07T21:59:53;10.27;;;7.00;;
6862;SDS011;3470;48.738;9.616;2023-05-07T22:02:19;14.00;;;6.40;;
6862;SDS011;3470;48.738;9.616;2023-05-07T22:04:45;23.77;;;6.87;;
6862;SDS011;3470;48.738;9.616;2023-05-07T22:07:10;5.60;;;5.03;;
6862;SDS011;3470;48.738;9.616;2023-05-07T22:09:36;5.47;;;4.97;;
6862;SDS011;3470;48.738;9.616;2023-05-07T22:12:01;6.03;;;5.43;;
6862;SDS011;3470;48.738;9.616;2023-05-07T22:14:27;7.47;;;6.13;;
6862;SDS011;3470;48.738;9.616;2023-05-07T22:16:53;7.40;;;6.70;;
6862;SDS011;3470;48.738;9.616;2023-05-07T22:19:18;8.40;;;7.50;;
6862;SDS011;3470;48.738;9.616;2023-05-07T22:21:44;10.10;;;9.13;;
6862;SDS011;3470;48.738;9.616;2023-05-07T22:24:10;8.30;;;7.50;;
6862;SDS011;3470;48.738;9.616;2023-05-07T22:26:35;10.43;;;8.70;;
6862;SDS011;3470;48.738;9.616;2023-05-07T22:29:01;8.93;;;8.07;;
6862;SDS011;3470;48.738;9.616;2023-05-07T22:31:26;8.60;;;7.80;;
6862;SDS011;3470;48.738;9.616;2023-05-07T22:33:52;8.00;;;7.13;;
6862;SDS011;3470;48.738;9.616;2023-05-07T22:36:17;8.60;;;7.80;;
6862;SDS011;3470;48.738;9.616;2023-05-07T22:38:43;7.47;;;6.73;;
6862;SDS011;3470;48.738;9.616;2023-05-07T22:41:09;9.00;;;8.10;;
6862;SDS011;3470;48.738;9.616;2023-05-07T22:43:34;8.90;;;8.07;;
6862;SDS011;3470;48.738;9.616;2023-05-07T22:46:00;9.33;;;8.40;;
6862;SDS011;3470;48.738;9.616;2023-05-07T22:48:29;9.60;;;8.50;;
6862;SDS011;3470;48.738;9.616;2023-05-07T22:50:56;8.93;;;8.07;;
6862;SDS011;3470;48.738;9.616;2023-05-07T22:53:21;8.67;;;7.53;;
6862;SDS011;3470;48.738;9.616;2023-05-07T22:55:50;8.23;;;7.47;;
6862;SDS011;3470;48.738;9.616;2023-05-07T22:58:16;8.57;;;7.87;;
6862;SDS011;3470;48.738;9.616;2023-05-07T23:00:42;8.90;;;8.03;;
6862;SDS011;3470;48.738;9.616;2023-05-07T23:03:07;8.47;;;7.10;;
6862;SDS011;3470;48.738;9.616;2023-05-07T23:05:33;7.83;;;7.07;;
6862;SDS011;3470;48.738;9.616;2023-05-07T23:07:58;9.10;;;8.20;;
6862;SDS011;3470;48.738;9.616;2023-05-07T23:10:24;8.93;;;8.03;;
6862;SDS011;3470;48.738;9.616;2023-05-07T23:12:50;9.90;;;9.00;;
6862;SDS011;3470;48.738;9.616;2023-05-07T23:15:16;9.43;;;8.53;;
6862;SDS011;3470;48.738;9.616;2023-05-07T23:17:42;9.53;;;8.63;;
6862;SDS011;3470;48.738;9.616;2023-05-07T23:20:09;9.90;;;8.90;;
